Burlington, IA

9:59 PM CST on December 07, 2016 (GMT -0600)
Burlington Regional | | Change Station

Elev 696 ft 40.78 °N, 91.13 °W | Updated 6 minutes ago

Clear
Clear
22 °F
Feels Like 10 °F
N
12
Wind Variable Wind from West

Today
High -- | Low -- °F
--% Chance of Precip.
Yesterday
High -- | Low -- °F
Precip. -- in
Pressure 30.33 in
Visibility 10.0 miles
Clouds Clear
Windchill 10 °F
Dew Point 12 °F
Humidity 66%
Rainfall 0.00 in
Snow Depth Not available.
7:15 AM 4:36 PM
First Quarter, 59% visible
METAR KBRL 080353Z AUTO 28010KT 10SM CLR M06/M11 A3030 RMK AO2 SLP271 T10561111
Pressure 30.33 in
Visibility 10.0 miles
Clouds Clear
Windchill 10 °F
Dew Point 12 °F
Humidity 66%
Rainfall 0.00 in
Snow Depth Not available.
7:15 AM 4:36 PM
First Quarter, 59% visible
METAR KBRL 080353Z AUTO 28010KT 10SM CLR M06/M11 A3030 RMK AO2 SLP271 T10561111

10-Day Weather Forecast

Almanac

Astronomy

Dec. 07, 2016 Rise Set
Actual Time
Civil Twilight
Nautical Twilight
Astronomical Twilight
Moon
Length of Visible Light
Length of Day
Tomorrow will be .
, % of the Moon is Illuminated

Today's Extremes

State Highs State Lows

Community

WunderPhotos

Upload Photos

1,956,259 photos uploaded!

WunderBlog® & News

Nearby

Air Quality

  Air Quality AQ Index Pollutant
Not available.

Snow Depth

Station Depth Elevation

Earthquake Activity

City Distance Mag. Time & Date
Minimum magnitude displayed is 2.5.

Coastal Water Temperatures

Place Temperature

Stations

Nearby Weather Stations

Station Location Temp. Windchill Dew Point Humidity Wind Precip. Elev Updated Type
                   

Watches & Warnings

There are currently no watches in effect.